• Join FlightAware (Why Join?)
  • Login
  • US Flag 
09:57PM EDT


 

Airport Tracker/Info


-or-


 

Live Flight TrackerFlight Track Log ✈ UAL5840 ✈ 24-Apr-2013 ✈ CYWG - KORD

Flight Track Log - Related Links

Times and Time Zones

All times are in EDT time to prevent confusion due to time zone crossing. See the UAL5840 flight status page for this flight to view local times or setup timezone preferences in your user account.

Time Position Orientation Groundspeed Altitude Reporting Facility
EDT Latitude Longitude Course Direction KTS MPH feet Rate Location/Type
02:00PM 49.9167 -97.3000 147° Southeast 150 173 3,500  Level Winnipeg Center
02:01PM 49.8833 -97.3500 224° Southwest 220 253 5,100 1,860 Climbing Winnipeg Center
02:02PM 49.8333 -97.3000 147° Southeast 260 299 7,300 2,100 Climbing Winnipeg Center
02:03PM 49.7833 -97.2000 128° Southeast 280 322 9,400 1,680 Climbing Winnipeg Center
02:04PM 49.4664 -96.7979 150° Southeast  Level FlightAware Approximate
02:04PM 49.7333 -97.1000 128° Southeast 310 357 10,700  Level Winnipeg Center
02:05PM 49.3764 -96.7097 147° Southeast  Level FlightAware Approximate
02:05PM 49.6667 -97.0000 136° Southeast 350 403 11,600  Level Winnipeg Center
02:06PM 49.2846 -96.6178 147° Southeast  Level FlightAware Approximate
02:06PM 49.5833 -96.9167 147° Southeast 360 414 13,100  Level Winnipeg Center
02:07PM 49.5000 -96.8333 147° Southeast 370 426 14,500 1,380 Climbing Winnipeg Center
02:09PM 49.3333 -96.6500 144° Southeast 370 426 17,400 1,380 Climbing Winnipeg Center
02:10PM 49.2333 -96.5833 156° South 370 426 18,800 1,440 Climbing Winnipeg Center
02:11PM 49.1500 -96.4833 142° Southeast 370 426 20,300 1,380 Climbing Winnipeg Center
02:12PM 49.0500 -96.4000 151° Southeast 380 437 21,600 1,320 Climbing Winnipeg Center
02:13PM 48.9500 -96.3333 156° South 380 437 23,000 1,320 Climbing Winnipeg Center
02:14PM 48.8667 -96.2500 147° Southeast 380 437 24,300 1,200 Climbing Winnipeg Center
02:15PM 48.7833 -96.1500 142° Southeast 380 437 25,400 1,020 Climbing Winnipeg Center
02:16PM 48.7392 -96.1158 153° Southeast 381 438 26,100 960 Climbing Minneapolis Center
02:17PM 48.6464 -96.0325 149° Southeast 386 444 27,100 960 Climbing Minneapolis Center
02:18PM 48.5567 -95.9478 148° Southeast 383 441 28,200 960 Climbing Minneapolis Center
02:19PM 48.4633 -95.8631 149° Southeast 388 447 29,200 960 Climbing Minneapolis Center
02:20PM 48.3697 -95.7794 149° Southeast 390 449 30,300 960 Climbing Minneapolis Center
02:21PM 48.2769 -95.6958 149° Southeast 389 448 31,300 900 Climbing Minneapolis Center
02:22PM 48.1814 -95.6086 149° Southeast 397 457 32,400 1,020 Climbing Minneapolis Center
02:23PM 48.0622 -95.5025 149° Southeast 400 460 33,700 1,200 Climbing Minneapolis Center
02:24PM 47.9472 -95.3994 149° Southeast 402 463 34,900 600 Climbing Minneapolis Center
02:25PM 47.8508 -95.3131 149° Southeast 403 464 35,000  Climbing Minneapolis Center
02:26PM 47.7469 -95.2222 150° Southeast 421 484 35,000  Level Minneapolis Center
02:27PM 47.6386 -95.1261 149° Southeast 443 510 35,000  Level Minneapolis Center
02:28PM 47.5269 -95.0292 150° Southeast 458 527 35,000  Level Minneapolis Center
02:29PM 47.4169 -94.9306 149° Southeast 466 536 35,000  Level Minneapolis Center
02:30PM 47.2814 -94.8158 150° Southeast 469 540 35,000  Level Minneapolis Center
02:31PM 47.1714 -94.7197 149° Southeast 464 534 35,000  Level Minneapolis Center
02:32PM 47.0614 -94.6253 150° Southeast 461 531 35,000  Level Minneapolis Center
02:33PM 46.9517 -94.5317 150° Southeast 459 528 35,000  Level Minneapolis Center
02:34PM 46.8425 -94.4386 150° Southeast 458 527 35,000  Level Minneapolis Center
02:35PM 46.7114 -94.3303 150° Southeast 455 524 35,000  Level Minneapolis Center
02:36PM 46.6014 -94.2361 150° Southeast 459 528 35,000  Level Minneapolis Center
02:38PM 46.4908 -94.1444 150° Southeast 460 529 35,000  Level Minneapolis Center
02:39PM 46.3786 -94.0533 151° Southeast 463 533 35,000  Level Minneapolis Center
02:40PM 46.2611 -93.9783 156° South 464 534 35,000  Level Minneapolis Center
02:41PM 46.1239 -93.9019 159° South 462 532 35,000  Level Minneapolis Center
02:42PM 46.0044 -93.8378 160° South 460 529 35,000  Level Minneapolis Center
02:43PM 45.8883 -93.7728 159° South 454 522 35,000  Level Minneapolis Center
02:44PM 45.7714 -93.7089 159° South 451 519 35,000  Level Minneapolis Center
02:45PM 45.6542 -93.6453 159° South 452 520 35,000  Level Minneapolis Center
02:46PM 45.5172 -93.5597 156° South 451 519 35,000  Level Minneapolis Center
02:47PM 45.4372 -93.4128 128° Southeast 467 537 35,000  Level Minneapolis Center
02:48PM 45.3633 -93.2583 124° Southeast 470 541 35,000  Level Minneapolis Center
02:49PM 45.2892 -93.1058 125° Southeast 469 540 35,000  Level Minneapolis Center
02:50PM 45.2142 -92.9539 125° Southeast 470 541 35,000  Level Minneapolis Center
02:51PM 45.1389 -92.8011 125° Southeast 470 541 35,000  Level Minneapolis Center
02:52PM 45.0617 -92.6486 126° Southeast 472 543 35,000  Level Minneapolis Center
02:53PM 44.9625 -92.4714 128° Southeast 477 549 35,000  Level Minneapolis Center
02:54PM 44.8819 -92.3250 128° Southeast 473 544 35,000  Level Minneapolis Center
02:55PM 44.8017 -92.1814 128° Southeast 468 539 35,000  Level Minneapolis Center
02:56PM 44.7214 -92.0383 128° Southeast 466 536 35,000  Level Minneapolis Center
02:57PM 44.6425 -91.8972 128° Southeast 463 533 35,000  Level Minneapolis Center
02:58PM 44.5647 -91.7556 128° Southeast 460 529 35,000  Level Minneapolis Center
02:59PM 44.4847 -91.6175 129° Southeast 457 526 35,000  Level Minneapolis Center
03:00PM 44.3747 -91.4222 128° Southeast 457 526 35,000  Level Minneapolis Center
03:01PM 44.2936 -91.2825 129° Southeast 459 528 35,000 -840 Level Minneapolis Center
03:02PM 44.2142 -91.1439 129° Southeast 460 529 33,300 -1,620 Descending Minneapolis Center
03:04PM 44.1347 -91.0031 128° Southeast 462 532 31,700 -1,140 Descending Minneapolis Center
03:05PM 44.0544 -90.8667 129° Southeast 461 531 31,000 -360 Descending Minneapolis Center
03:06PM 43.9900 -90.7542 129° Southeast 463 533 31,000  Level Minneapolis Center
03:07PM 43.8761 -90.5603 129° Southeast 466 536 31,000  Level Minneapolis Center
03:08PM 43.7944 -90.4214 129° Southeast 464 534 31,000 -960 Level Minneapolis Center
03:09PM 43.7122 -90.2836 130° Southeast 467 537 29,100 -1,860 Descending Minneapolis Center
03:10PM 43.6306 -90.1461 129° Southeast 463 533 27,200 -1,860 Descending Minneapolis Center
03:11PM 43.5508 -90.0125 129° Southeast 455 524 25,300 -1,500 Descending Minneapolis Center
03:12PM 43.4561 -89.8553 130° Southeast 459 528 24,000 -600 Descending Chicago Center
03:13PM 43.3756 -89.7200 129° Southeast 458 527 24,000 -480 Level Chicago Center
03:14PM 43.2811 -89.5667 130° Southeast 453 521 23,100 -1,380 Descending Chicago Center
03:15PM 43.2033 -89.4364 129° Southeast 445 512 21,200 -2,040 Descending Chicago Center
03:16PM 43.1158 -89.3311 139° Southeast 426 490 18,900 -2,400 Descending Chicago Center
03:17PM 43.0086 -89.2844 162° South 406 467 16,300 -2,700 Descending Chicago Center
03:18PM 42.9056 -89.2442 164° South 392 451 13,400 -2,400 Descending Chicago Center
03:19PM 42.8108 -89.1358 140° Southeast 389 448 11,400 -1,200 Descending Chicago Center
03:20PM 42.7386 -89.0306 133° Southeast 383 441 11,000 -240 Descending Chicago Center
03:21PM 42.6664 -88.9247 133° Southeast 382 440 11,000  Level Chicago Center
03:22PM 42.5933 -88.8175 133° Southeast 385 443 11,000 -420 Level Chicago Center
03:23PM 42.5206 -88.7108 133° Southeast 385 443 10,200 -540 Descending Chicago Center
03:24PM 42.4367 -88.5911 133° Southeast 377 434 10,000 -120 Descending Chicago Center
03:25PM 42.3703 -88.4872 131° Southeast 369 425 10,000  Level Chicago Center
03:26PM 42.3306 -88.3714 115° Southeast 374 430 10,000  Level Chicago Center
03:27PM 42.2525 -88.2417 129° Southeast 371 427 10,000  Level Chicago Center
03:28PM 42.1842 -88.1464 134° Southeast 359 413 10,000 -540 Level Chicago Center
03:29PM 42.1083 -88.1022 157° South 302 348 8,900 -1,260 Descending Chicago Center
03:30PM 42.0667 -88.0833 161° South 295 339 8,000 -1,140 Descending Chicago TRACON
03:31PM 41.9833 -88.0167 149° Southeast 277 319 7,000 -480 Descending Chicago TRACON
03:32PM 41.9500 -87.9333 118° Southeast 266 306 7,000  Level Chicago TRACON
03:33PM 41.9167 -87.8667 124° Southeast 236 272 7,000 -120 Level Chicago TRACON
03:34PM 41.8833 -87.7833 118° Southeast 240 276 6,800 -840 Descending Chicago TRACON
03:35PM 41.8833 -87.7000 90° East 233 268 5,400 -1,260 Descending Chicago TRACON
03:36PM 41.9333 -87.6667 26° Northeast 221 254 4,300 -1,020 Descending Chicago TRACON
03:37PM 41.9667 -87.7167 312° West 174 200 3,400 -1,080 Descending Chicago TRACON
03:38PM 41.9667 -87.7833 270° West 159 183 2,200 -1,020 Descending Chicago TRACON
03:39PM 41.9667 -87.8333 270° West 123 142 1,500 -720 Descending Chicago TRACON
03:40PM 41.9667 -87.8833 270° West 128 147 800 -660 Descending Chicago TRACON
03:42PM 41.9667 -87.9000 304° West  Level FlightAware Approximate